sensor_id;sensor_type;location;lat;lon;timestamp;P1;durP1;ratioP1;P2;durP2;ratioP2
56999;SDS011;42891;50.006;21.964;2022-08-01T00:00:07;3.90;;;1.73;;
56999;SDS011;42891;50.006;21.964;2022-08-01T00:04:08;2.55;;;1.85;;
56999;SDS011;42891;50.006;21.964;2022-08-01T00:08:08;4.40;;;1.70;;
56999;SDS011;42891;50.006;21.964;2022-08-01T00:12:08;2.83;;;1.73;;
56999;SDS011;42891;50.006;21.964;2022-08-01T00:16:09;3.20;;;1.45;;
56999;SDS011;42891;50.006;21.964;2022-08-01T00:20:11;1.52;;;1.40;;
56999;SDS011;42891;50.006;21.964;2022-08-01T00:24:12;1.20;;;1.10;;
56999;SDS011;42891;50.006;21.964;2022-08-01T00:28:12;4.50;;;1.48;;
56999;SDS011;42891;50.006;21.964;2022-08-01T00:32:13;2.08;;;1.10;;
56999;SDS011;42891;50.006;21.964;2022-08-01T00:36:13;1.80;;;1.23;;
56999;SDS011;42891;50.006;21.964;2022-08-01T00:40:14;1.10;;;1.00;;
56999;SDS011;42891;50.006;21.964;2022-08-01T00:44:14;1.10;;;1.00;;
56999;SDS011;42891;50.006;21.964;2022-08-01T00:48:14;2.22;;;1.20;;
56999;SDS011;42891;50.006;21.964;2022-08-01T00:52:15;2.25;;;1.17;;
56999;SDS011;42891;50.006;21.964;2022-08-01T00:56:16;2.55;;;1.38;;
56999;SDS011;42891;50.006;21.964;2022-08-01T01:00:17;4.28;;;1.40;;
56999;SDS011;42891;50.006;21.964;2022-08-01T01:04:17;4.90;;;1.60;;
56999;SDS011;42891;50.006;21.964;2022-08-01T01:08:19;1.10;;;1.00;;
56999;SDS011;42891;50.006;21.964;2022-08-01T01:16:45;1.17;;;1.00;;
56999;SDS011;42891;50.006;21.964;2022-08-01T01:20:50;1.20;;;0.98;;
56999;SDS011;42891;50.006;21.964;2022-08-01T01:29:30;1.95;;;0.90;;
56999;SDS011;42891;50.006;21.964;2022-08-01T01:33:35;1.20;;;1.10;;
56999;SDS011;42891;50.006;21.964;2022-08-01T01:37:38;2.35;;;1.00;;
56999;SDS011;42891;50.006;21.964;2022-08-01T01:41:40;0.90;;;0.90;;
56999;SDS011;42891;50.006;21.964;2022-08-01T01:45:43;0.90;;;0.88;;
56999;SDS011;42891;50.006;21.964;2022-08-01T01:49:46;1.10;;;0.82;;
56999;SDS011;42891;50.006;21.964;2022-08-01T01:53:48;1.77;;;0.80;;
56999;SDS011;42891;50.006;21.964;2022-08-01T01:57:50;0.98;;;0.88;;
56999;SDS011;42891;50.006;21.964;2022-08-01T02:01:52;2.65;;;0.95;;
56999;SDS011;42891;50.006;21.964;2022-08-01T02:05:56;1.25;;;0.98;;
56999;SDS011;42891;50.006;21.964;2022-08-01T02:09:59;1.95;;;1.77;;
56999;SDS011;42891;50.006;21.964;2022-08-01T02:14:02;2.47;;;2.15;;
56999;SDS011;42891;50.006;21.964;2022-08-01T02:18:03;1.60;;;1.50;;
56999;SDS011;42891;50.006;21.964;2022-08-01T02:22:11;0.85;;;0.85;;
56999;SDS011;42891;50.006;21.964;2022-08-01T02:26:20;1.02;;;0.80;;
56999;SDS011;42891;50.006;21.964;2022-08-01T02:30:24;1.60;;;0.90;;
56999;SDS011;42891;50.006;21.964;2022-08-01T02:34:25;2.42;;;0.93;;
56999;SDS011;42891;50.006;21.964;2022-08-01T02:38:32;2.55;;;1.50;;
56999;SDS011;42891;50.006;21.964;2022-08-01T02:42:35;1.50;;;1.40;;
56999;SDS011;42891;50.006;21.964;2022-08-01T02:46:40;2.15;;;1.80;;
56999;SDS011;42891;50.006;21.964;2022-08-01T02:50:49;2.28;;;1.98;;
56999;SDS011;42891;50.006;21.964;2022-08-01T02:54:53;2.25;;;2.05;;
56999;SDS011;42891;50.006;21.964;2022-08-01T02:58:55;2.95;;;2.30;;
56999;SDS011;42891;50.006;21.964;2022-08-01T03:02:55;3.17;;;2.25;;
56999;SDS011;42891;50.006;21.964;2022-08-01T03:06:58;2.03;;;1.80;;
56999;SDS011;42891;50.006;21.964;2022-08-01T03:11:02;4.53;;;2.60;;
56999;SDS011;42891;50.006;21.964;2022-08-01T03:15:06;4.28;;;2.10;;
56999;SDS011;42891;50.006;21.964;2022-08-01T03:19:09;2.53;;;1.60;;
56999;SDS011;42891;50.006;21.964;2022-08-01T03:23:12;2.58;;;1.50;;
56999;SDS011;42891;50.006;21.964;2022-08-01T03:27:13;2.53;;;1.42;;
56999;SDS011;42891;50.006;21.964;2022-08-01T03:31:14;1.40;;;1.30;;
56999;SDS011;42891;50.006;21.964;2022-08-01T03:35:16;1.60;;;1.42;;
56999;SDS011;42891;50.006;21.964;2022-08-01T03:39:17;2.55;;;1.40;;
56999;SDS011;42891;50.006;21.964;2022-08-01T03:43:22;1.88;;;1.30;;
56999;SDS011;42891;50.006;21.964;2022-08-01T03:47:44;1.40;;;1.00;;
56999;SDS011;42891;50.006;21.964;2022-08-01T03:51:47;1.20;;;1.10;;
56999;SDS011;42891;50.006;21.964;2022-08-01T03:55:49;0.90;;;0.90;;
56999;SDS011;42891;50.006;21.964;2022-08-01T03:59:50;1.67;;;0.90;;
56999;SDS011;42891;50.006;21.964;2022-08-01T04:03:51;2.15;;;0.98;;
56999;SDS011;42891;50.006;21.964;2022-08-01T04:07:52;1.45;;;0.90;;
56999;SDS011;42891;50.006;21.964;2022-08-01T04:11:55;1.77;;;0.90;;
56999;SDS011;42891;50.006;21.964;2022-08-01T04:15:56;3.13;;;1.00;;
56999;SDS011;42891;50.006;21.964;2022-08-01T04:19:56;2.05;;;0.88;;
56999;SDS011;42891;50.006;21.964;2022-08-01T04:23:59;0.80;;;0.80;;
56999;SDS011;42891;50.006;21.964;2022-08-01T04:28:03;0.80;;;0.80;;
56999;SDS011;42891;50.006;21.964;2022-08-01T04:32:08;1.52;;;0.90;;
56999;SDS011;42891;50.006;21.964;2022-08-01T04:36:12;0.90;;;0.90;;
56999;SDS011;42891;50.006;21.964;2022-08-01T04:40:14;1.85;;;1.20;;
56999;SDS011;42891;50.006;21.964;2022-08-01T04:44:16;2.60;;;1.40;;
56999;SDS011;42891;50.006;21.964;2022-08-01T04:48:16;2.53;;;2.00;;
56999;SDS011;42891;50.006;21.964;2022-08-01T04:52:19;6.03;;;3.17;;
56999;SDS011;42891;50.006;21.964;2022-08-01T04:56:20;7.05;;;4.63;;
56999;SDS011;42891;50.006;21.964;2022-08-01T05:00:20;8.77;;;5.07;;
56999;SDS011;42891;50.006;21.964;2022-08-01T05:04:20;10.77;;;5.63;;
56999;SDS011;42891;50.006;21.964;2022-08-01T05:08:21;8.90;;;6.50;;
56999;SDS011;42891;50.006;21.964;2022-08-01T05:12:21;13.13;;;8.10;;
56999;SDS011;42891;50.006;21.964;2022-08-01T05:16:21;19.35;;;9.70;;
56999;SDS011;42891;50.006;21.964;2022-08-01T05:20:22;17.27;;;10.63;;
56999;SDS011;42891;50.006;21.964;2022-08-01T05:24:22;14.50;;;10.18;;
56999;SDS011;42891;50.006;21.964;2022-08-01T05:28:22;17.37;;;10.03;;
56999;SDS011;42891;50.006;21.964;2022-08-01T05:32:23;17.02;;;10.15;;
56999;SDS011;42891;50.006;21.964;2022-08-01T05:36:23;19.27;;;11.82;;
56999;SDS011;42891;50.006;21.964;2022-08-01T05:40:23;16.15;;;10.57;;
56999;SDS011;42891;50.006;21.964;2022-08-01T05:44:23;15.40;;;10.77;;
56999;SDS011;42891;50.006;21.964;2022-08-01T05:48:25;10.70;;;8.32;;
56999;SDS011;42891;50.006;21.964;2022-08-01T05:52:25;10.73;;;7.97;;
56999;SDS011;42891;50.006;21.964;2022-08-01T05:56:25;8.18;;;6.40;;
56999;SDS011;42891;50.006;21.964;2022-08-01T06:00:26;7.63;;;6.22;;
56999;SDS011;42891;50.006;21.964;2022-08-01T06:04:26;7.57;;;5.95;;
56999;SDS011;42891;50.006;21.964;2022-08-01T06:08:27;10.52;;;7.97;;
56999;SDS011;42891;50.006;21.964;2022-08-01T06:12:27;14.07;;;8.90;;
56999;SDS011;42891;50.006;21.964;2022-08-01T06:16:27;14.07;;;9.52;;
56999;SDS011;42891;50.006;21.964;2022-08-01T06:20:28;13.77;;;9.57;;
56999;SDS011;42891;50.006;21.964;2022-08-01T06:24:28;20.67;;;15.43;;
56999;SDS011;42891;50.006;21.964;2022-08-01T06:28:28;12.77;;;10.60;;
56999;SDS011;42891;50.006;21.964;2022-08-01T06:32:29;19.98;;;12.70;;
56999;SDS011;42891;50.006;21.964;2022-08-01T06:36:30;13.02;;;9.10;;
56999;SDS011;42891;50.006;21.964;2022-08-01T06:40:31;13.88;;;9.68;;
56999;SDS011;42891;50.006;21.964;2022-08-01T06:44:31;13.77;;;11.73;;
56999;SDS011;42891;50.006;21.964;2022-08-01T06:48:32;18.73;;;13.13;;
56999;SDS011;42891;50.006;21.964;2022-08-01T06:52:32;19.93;;;14.73;;
56999;SDS011;42891;50.006;21.964;2022-08-01T06:56:33;19.10;;;14.95;;
56999;SDS011;42891;50.006;21.964;2022-08-01T07:00:35;22.70;;;15.25;;
56999;SDS011;42891;50.006;21.964;2022-08-01T07:04:35;20.77;;;15.50;;
56999;SDS011;42891;50.006;21.964;2022-08-01T07:08:35;21.13;;;15.27;;
56999;SDS011;42891;50.006;21.964;2022-08-01T07:12:36;22.67;;;14.68;;
56999;SDS011;42891;50.006;21.964;2022-08-01T07:16:37;24.95;;;14.60;;
56999;SDS011;42891;50.006;21.964;2022-08-01T07:20:38;23.65;;;15.75;;
56999;SDS011;42891;50.006;21.964;2022-08-01T07:24:38;20.58;;;14.75;;
56999;SDS011;42891;50.006;21.964;2022-08-01T07:28:39;18.77;;;14.13;;
56999;SDS011;42891;50.006;21.964;2022-08-01T07:32:39;20.67;;;14.73;;
56999;SDS011;42891;50.006;21.964;2022-08-01T07:36:39;18.60;;;14.50;;
56999;SDS011;42891;50.006;21.964;2022-08-01T07:40:40;16.60;;;14.00;;
56999;SDS011;42891;50.006;21.964;2022-08-01T07:44:40;16.90;;;13.48;;
56999;SDS011;42891;50.006;21.964;2022-08-01T07:48:41;24.48;;;15.60;;
56999;SDS011;42891;50.006;21.964;2022-08-01T07:52:41;16.65;;;13.75;;
56999;SDS011;42891;50.006;21.964;2022-08-01T07:56:42;16.80;;;13.65;;
56999;SDS011;42891;50.006;21.964;2022-08-01T08:00:43;18.77;;;15.13;;
56999;SDS011;42891;50.006;21.964;2022-08-01T08:04:43;17.90;;;14.13;;
56999;SDS011;42891;50.006;21.964;2022-08-01T08:08:43;15.85;;;13.70;;
56999;SDS011;42891;50.006;21.964;2022-08-01T08:12:44;18.13;;;14.00;;
56999;SDS011;42891;50.006;21.964;2022-08-01T08:16:46;13.65;;;11.57;;
56999;SDS011;42891;50.006;21.964;2022-08-01T08:20:46;14.68;;;11.77;;
56999;SDS011;42891;50.006;21.964;2022-08-01T08:24:46;13.82;;;11.95;;
56999;SDS011;42891;50.006;21.964;2022-08-01T08:28:47;14.90;;;12.00;;
56999;SDS011;42891;50.006;21.964;2022-08-01T08:32:47;9.27;;;8.33;;
56999;SDS011;42891;50.006;21.964;2022-08-01T08:36:48;10.00;;;8.57;;
56999;SDS011;42891;50.006;21.964;2022-08-01T08:40:48;14.68;;;9.65;;
56999;SDS011;42891;50.006;21.964;2022-08-01T08:44:49;12.95;;;9.93;;
56999;SDS011;42891;50.006;21.964;2022-08-01T08:48:49;14.50;;;10.93;;
56999;SDS011;42891;50.006;21.964;2022-08-01T08:52:52;14.27;;;10.77;;
56999;SDS011;42891;50.006;21.964;2022-08-01T08:56:54;12.00;;;9.75;;
56999;SDS011;42891;50.006;21.964;2022-08-01T09:00:55;11.02;;;9.85;;
56999;SDS011;42891;50.006;21.964;2022-08-01T09:04:56;10.77;;;8.88;;
56999;SDS011;42891;50.006;21.964;2022-08-01T09:08:57;10.50;;;9.20;;
56999;SDS011;42891;50.006;21.964;2022-08-01T09:13:11;9.35;;;8.38;;
56999;SDS011;42891;50.006;21.964;2022-08-01T09:17:14;10.82;;;8.30;;
56999;SDS011;42891;50.006;21.964;2022-08-01T09:21:17;11.05;;;7.25;;
56999;SDS011;42891;50.006;21.964;2022-08-01T09:25:20;8.88;;;6.40;;
56999;SDS011;42891;50.006;21.964;2022-08-01T09:29:21;8.70;;;7.38;;
56999;SDS011;42891;50.006;21.964;2022-08-01T09:33:26;9.48;;;8.40;;
56999;SDS011;42891;50.006;21.964;2022-08-01T09:37:47;9.38;;;8.38;;
56999;SDS011;42891;50.006;21.964;2022-08-01T09:41:47;8.20;;;7.33;;
56999;SDS011;42891;50.006;21.964;2022-08-01T09:45:48;7.43;;;5.75;;
56999;SDS011;42891;50.006;21.964;2022-08-01T09:49:54;6.45;;;5.65;;
56999;SDS011;42891;50.006;21.964;2022-08-01T09:53:55;6.35;;;5.20;;
56999;SDS011;42891;50.006;21.964;2022-08-01T09:57:56;8.32;;;6.10;;
56999;SDS011;42891;50.006;21.964;2022-08-01T10:01:58;7.20;;;4.68;;
56999;SDS011;42891;50.006;21.964;2022-08-01T10:05:58;6.80;;;5.20;;
56999;SDS011;42891;50.006;21.964;2022-08-01T10:10:09;6.30;;;5.60;;
56999;SDS011;42891;50.006;21.964;2022-08-01T10:14:10;6.47;;;5.20;;
56999;SDS011;42891;50.006;21.964;2022-08-01T10:18:14;6.35;;;5.32;;
56999;SDS011;42891;50.006;21.964;2022-08-01T10:22:14;7.40;;;4.88;;
56999;SDS011;42891;50.006;21.964;2022-08-01T10:26:17;3.95;;;3.58;;
56999;SDS011;42891;50.006;21.964;2022-08-01T10:30:18;4.28;;;3.88;;
56999;SDS011;42891;50.006;21.964;2022-08-01T10:34:18;5.85;;;3.72;;
56999;SDS011;42891;50.006;21.964;2022-08-01T10:38:20;5.95;;;4.45;;
56999;SDS011;42891;50.006;21.964;2022-08-01T10:42:21;7.65;;;4.32;;
56999;SDS011;42891;50.006;21.964;2022-08-01T10:46:21;5.00;;;3.80;;
56999;SDS011;42891;50.006;21.964;2022-08-01T10:55:02;5.72;;;4.32;;
56999;SDS011;42891;50.006;21.964;2022-08-01T10:59:04;6.43;;;4.83;;
56999;SDS011;42891;50.006;21.964;2022-08-01T11:03:04;5.15;;;4.65;;
56999;SDS011;42891;50.006;21.964;2022-08-01T11:07:06;6.32;;;5.20;;
56999;SDS011;42891;50.006;21.964;2022-08-01T11:11:07;6.22;;;5.63;;
56999;SDS011;42891;50.006;21.964;2022-08-01T11:19:08;8.13;;;5.15;;
56999;SDS011;42891;50.006;21.964;2022-08-01T11:35:25;4.85;;;3.30;;
56999;SDS011;42891;50.006;21.964;2022-08-01T11:39:26;3.10;;;2.80;;
56999;SDS011;42891;50.006;21.964;2022-08-01T11:43:27;3.05;;;2.80;;
56999;SDS011;42891;50.006;21.964;2022-08-01T11:52:24;3.22;;;2.90;;
56999;SDS011;42891;50.006;21.964;2022-08-01T11:56:25;3.65;;;3.30;;
56999;SDS011;42891;50.006;21.964;2022-08-01T12:00:25;3.95;;;3.10;;
56999;SDS011;42891;50.006;21.964;2022-08-01T12:04:26;5.95;;;3.40;;
56999;SDS011;42891;50.006;21.964;2022-08-01T12:08:30;4.10;;;3.70;;
56999;SDS011;42891;50.006;21.964;2022-08-01T12:12:41;6.80;;;4.22;;
56999;SDS011;42891;50.006;21.964;2022-08-01T12:16:49;5.50;;;4.00;;
56999;SDS011;42891;50.006;21.964;2022-08-01T12:20:59;5.88;;;4.18;;
56999;SDS011;42891;50.006;21.964;2022-08-01T12:25:05;5.50;;;4.05;;
56999;SDS011;42891;50.006;21.964;2022-08-01T12:29:06;5.55;;;5.05;;
56999;SDS011;42891;50.006;21.964;2022-08-01T12:33:08;5.47;;;4.70;;
56999;SDS011;42891;50.006;21.964;2022-08-01T12:37:10;4.00;;;3.70;;
56999;SDS011;42891;50.006;21.964;2022-08-01T12:41:11;7.07;;;3.85;;
56999;SDS011;42891;50.006;21.964;2022-08-01T12:45:33;5.85;;;3.92;;
56999;SDS011;42891;50.006;21.964;2022-08-01T12:49:32;3.80;;;3.22;;
56999;SDS011;42891;50.006;21.964;2022-08-01T12:53:35;3.90;;;3.50;;
56999;SDS011;42891;50.006;21.964;2022-08-01T12:57:36;4.25;;;3.20;;
56999;SDS011;42891;50.006;21.964;2022-08-01T13:01:38;3.88;;;3.47;;
56999;SDS011;42891;50.006;21.964;2022-08-01T13:05:40;5.07;;;3.58;;
56999;SDS011;42891;50.006;21.964;2022-08-01T13:09:49;3.97;;;3.28;;
56999;SDS011;42891;50.006;21.964;2022-08-01T13:13:50;4.57;;;3.25;;
56999;SDS011;42891;50.006;21.964;2022-08-01T13:17:52;11.00;;;3.70;;
56999;SDS011;42891;50.006;21.964;2022-08-01T13:21:54;3.67;;;2.88;;
56999;SDS011;42891;50.006;21.964;2022-08-01T13:25:57;3.58;;;3.22;;
56999;SDS011;42891;50.006;21.964;2022-08-01T13:29:57;5.10;;;3.70;;
56999;SDS011;42891;50.006;21.964;2022-08-01T13:34:10;3.50;;;3.20;;
56999;SDS011;42891;50.006;21.964;2022-08-01T13:38:11;3.90;;;2.97;;
56999;SDS011;42891;50.006;21.964;2022-08-01T13:42:12;3.50;;;3.20;;
56999;SDS011;42891;50.006;21.964;2022-08-01T13:46:16;3.67;;;3.15;;
56999;SDS011;42891;50.006;21.964;2022-08-01T13:50:17;4.18;;;3.22;;
56999;SDS011;42891;50.006;21.964;2022-08-01T13:54:17;4.65;;;3.35;;
56999;SDS011;42891;50.006;21.964;2022-08-01T13:58:18;6.38;;;3.45;;
56999;SDS011;42891;50.006;21.964;2022-08-01T14:02:19;3.72;;;3.10;;
56999;SDS011;42891;50.006;21.964;2022-08-01T14:06:19;3.97;;;3.42;;
56999;SDS011;42891;50.006;21.964;2022-08-01T14:10:22;3.63;;;3.20;;
56999;SDS011;42891;50.006;21.964;2022-08-01T14:14:23;3.80;;;3.50;;
56999;SDS011;42891;50.006;21.964;2022-08-01T14:18:24;5.13;;;3.50;;
56999;SDS011;42891;50.006;21.964;2022-08-01T14:22:24;3.70;;;3.30;;
56999;SDS011;42891;50.006;21.964;2022-08-01T14:26:24;7.13;;;3.70;;
56999;SDS011;42891;50.006;21.964;2022-08-01T14:30:25;4.07;;;3.63;;
56999;SDS011;42891;50.006;21.964;2022-08-01T14:34:25;4.47;;;3.67;;
56999;SDS011;42891;50.006;21.964;2022-08-01T14:38:25;5.57;;;3.38;;
56999;SDS011;42891;50.006;21.964;2022-08-01T14:42:26;4.57;;;3.67;;
56999;SDS011;42891;50.006;21.964;2022-08-01T14:46:26;5.88;;;3.50;;
56999;SDS011;42891;50.006;21.964;2022-08-01T14:50:26;4.23;;;3.47;;
56999;SDS011;42891;50.006;21.964;2022-08-01T14:54:27;4.70;;;2.80;;
56999;SDS011;42891;50.006;21.964;2022-08-01T14:58:28;3.60;;;2.80;;
56999;SDS011;42891;50.006;21.964;2022-08-01T15:02:29;4.47;;;3.38;;
56999;SDS011;42891;50.006;21.964;2022-08-01T15:06:30;6.60;;;3.70;;
56999;SDS011;42891;50.006;21.964;2022-08-01T15:10:30;3.93;;;2.63;;
56999;SDS011;42891;50.006;21.964;2022-08-01T15:14:32;6.13;;;3.17;;
56999;SDS011;42891;50.006;21.964;2022-08-01T15:22:47;4.28;;;3.00;;
56999;SDS011;42891;50.006;21.964;2022-08-01T15:26:48;3.63;;;2.95;;
56999;SDS011;42891;50.006;21.964;2022-08-01T15:30:48;5.03;;;2.70;;
56999;SDS011;42891;50.006;21.964;2022-08-01T15:34:49;5.57;;;3.40;;
56999;SDS011;42891;50.006;21.964;2022-08-01T15:38:49;3.38;;;2.75;;
56999;SDS011;42891;50.006;21.964;2022-08-01T15:42:49;3.03;;;2.50;;
56999;SDS011;42891;50.006;21.964;2022-08-01T15:46:50;4.60;;;3.10;;
56999;SDS011;42891;50.006;21.964;2022-08-01T15:50:51;4.88;;;2.55;;
56999;SDS011;42891;50.006;21.964;2022-08-01T15:54:51;5.50;;;2.67;;
56999;SDS011;42891;50.006;21.964;2022-08-01T15:58:51;4.13;;;2.90;;
56999;SDS011;42891;50.006;21.964;2022-08-01T16:02:52;4.37;;;2.60;;
56999;SDS011;42891;50.006;21.964;2022-08-01T16:06:52;3.83;;;2.70;;
56999;SDS011;42891;50.006;21.964;2022-08-01T16:10:53;5.45;;;2.90;;
56999;SDS011;42891;50.006;21.964;2022-08-01T16:14:53;5.97;;;3.50;;
56999;SDS011;42891;50.006;21.964;2022-08-01T16:18:53;6.70;;;2.77;;
56999;SDS011;42891;50.006;21.964;2022-08-01T16:22:54;4.18;;;2.47;;
56999;SDS011;42891;50.006;21.964;2022-08-01T16:26:54;3.63;;;2.63;;
56999;SDS011;42891;50.006;21.964;2022-08-01T16:30:54;5.50;;;2.50;;
56999;SDS011;42891;50.006;21.964;2022-08-01T16:34:55;4.03;;;2.50;;
56999;SDS011;42891;50.006;21.964;2022-08-01T16:38:55;3.60;;;2.93;;
56999;SDS011;42891;50.006;21.964;2022-08-01T16:42:55;5.90;;;2.83;;
56999;SDS011;42891;50.006;21.964;2022-08-01T16:46:56;6.55;;;3.65;;
56999;SDS011;42891;50.006;21.964;2022-08-01T16:50:56;5.43;;;2.80;;
56999;SDS011;42891;50.006;21.964;2022-08-01T16:54:56;5.10;;;3.07;;
56999;SDS011;42891;50.006;21.964;2022-08-01T16:58:57;6.07;;;3.10;;
56999;SDS011;42891;50.006;21.964;2022-08-01T17:02:57;5.33;;;2.40;;
56999;SDS011;42891;50.006;21.964;2022-08-01T17:06:58;5.22;;;2.42;;
56999;SDS011;42891;50.006;21.964;2022-08-01T17:10:59;6.30;;;2.35;;
56999;SDS011;42891;50.006;21.964;2022-08-01T17:14:59;5.67;;;2.47;;
56999;SDS011;42891;50.006;21.964;2022-08-01T17:18:59;3.08;;;2.47;;
56999;SDS011;42891;50.006;21.964;2022-08-01T17:23:00;5.03;;;2.90;;
56999;SDS011;42891;50.006;21.964;2022-08-01T17:27:01;8.27;;;2.95;;
56999;SDS011;42891;50.006;21.964;2022-08-01T17:31:01;6.57;;;3.30;;
56999;SDS011;42891;50.006;21.964;2022-08-01T17:35:02;6.00;;;3.03;;
56999;SDS011;42891;50.006;21.964;2022-08-01T17:39:03;5.55;;;2.88;;
56999;SDS011;42891;50.006;21.964;2022-08-01T17:43:05;4.15;;;2.50;;
56999;SDS011;42891;50.006;21.964;2022-08-01T17:47:05;10.70;;;3.13;;
56999;SDS011;42891;50.006;21.964;2022-08-01T17:51:05;3.93;;;2.90;;
56999;SDS011;42891;50.006;21.964;2022-08-01T17:55:06;5.22;;;3.03;;
56999;SDS011;42891;50.006;21.964;2022-08-01T17:59:07;6.55;;;2.72;;
56999;SDS011;42891;50.006;21.964;2022-08-01T18:03:07;4.40;;;2.87;;
56999;SDS011;42891;50.006;21.964;2022-08-01T18:07:08;4.50;;;2.80;;
56999;SDS011;42891;50.006;21.964;2022-08-01T18:11:08;4.57;;;2.60;;
56999;SDS011;42891;50.006;21.964;2022-08-01T18:15:09;5.10;;;2.90;;
56999;SDS011;42891;50.006;21.964;2022-08-01T18:19:09;11.13;;;4.45;;
56999;SDS011;42891;50.006;21.964;2022-08-01T18:23:10;8.00;;;3.87;;
56999;SDS011;42891;50.006;21.964;2022-08-01T18:27:10;5.93;;;3.47;;
56999;SDS011;42891;50.006;21.964;2022-08-01T18:31:10;11.17;;;3.60;;
56999;SDS011;42891;50.006;21.964;2022-08-01T18:35:12;6.38;;;3.40;;
56999;SDS011;42891;50.006;21.964;2022-08-01T18:39:12;8.27;;;3.47;;
56999;SDS011;42891;50.006;21.964;2022-08-01T18:43:12;5.50;;;3.03;;
56999;SDS011;42891;50.006;21.964;2022-08-01T18:47:12;6.83;;;3.33;;
56999;SDS011;42891;50.006;21.964;2022-08-01T18:51:13;12.17;;;4.23;;
56999;SDS011;42891;50.006;21.964;2022-08-01T18:55:13;10.80;;;4.33;;
56999;SDS011;42891;50.006;21.964;2022-08-01T18:59:13;8.37;;;4.53;;
56999;SDS011;42891;50.006;21.964;2022-08-01T19:03:15;9.48;;;4.60;;
56999;SDS011;42891;50.006;21.964;2022-08-01T19:07:15;10.90;;;5.40;;
56999;SDS011;42891;50.006;21.964;2022-08-01T19:11:16;8.73;;;5.05;;
56999;SDS011;42891;50.006;21.964;2022-08-01T19:15:16;15.70;;;5.90;;
56999;SDS011;42891;50.006;21.964;2022-08-01T19:19:16;13.43;;;6.70;;
56999;SDS011;42891;50.006;21.964;2022-08-01T19:23:18;17.85;;;8.30;;
56999;SDS011;42891;50.006;21.964;2022-08-01T19:27:37;10.30;;;6.93;;
56999;SDS011;42891;50.006;21.964;2022-08-01T19:31:44;10.05;;;6.78;;
56999;SDS011;42891;50.006;21.964;2022-08-01T19:35:46;14.70;;;8.07;;
56999;SDS011;42891;50.006;21.964;2022-08-01T19:43:52;20.13;;;8.65;;
56999;SDS011;42891;50.006;21.964;2022-08-01T19:47:53;17.48;;;9.10;;
56999;SDS011;42891;50.006;21.964;2022-08-01T19:52:00;15.55;;;8.18;;
56999;SDS011;42891;50.006;21.964;2022-08-01T19:56:03;20.52;;;8.98;;
56999;SDS011;42891;50.006;21.964;2022-08-01T20:00:06;16.52;;;9.27;;
56999;SDS011;42891;50.006;21.964;2022-08-01T20:04:07;14.20;;;9.35;;
56999;SDS011;42891;50.006;21.964;2022-08-01T20:08:07;23.77;;;10.30;;
56999;SDS011;42891;50.006;21.964;2022-08-01T20:12:08;22.48;;;10.90;;
56999;SDS011;42891;50.006;21.964;2022-08-01T20:16:08;16.50;;;10.43;;
56999;SDS011;42891;50.006;21.964;2022-08-01T20:20:09;16.83;;;10.98;;
56999;SDS011;42891;50.006;21.964;2022-08-01T20:24:10;20.90;;;10.70;;
56999;SDS011;42891;50.006;21.964;2022-08-01T20:28:14;14.07;;;9.80;;
56999;SDS011;42891;50.006;21.964;2022-08-01T20:32:15;23.08;;;10.57;;
56999;SDS011;42891;50.006;21.964;2022-08-01T20:36:16;15.65;;;9.77;;
56999;SDS011;42891;50.006;21.964;2022-08-01T20:40:17;14.80;;;9.20;;
56999;SDS011;42891;50.006;21.964;2022-08-01T20:44:18;14.25;;;8.05;;
56999;SDS011;42891;50.006;21.964;2022-08-01T20:48:19;12.90;;;8.18;;
56999;SDS011;42891;50.006;21.964;2022-08-01T20:52:20;12.55;;;8.60;;
56999;SDS011;42891;50.006;21.964;2022-08-01T20:56:28;12.70;;;7.75;;
56999;SDS011;42891;50.006;21.964;2022-08-01T21:00:35;13.32;;;8.00;;
56999;SDS011;42891;50.006;21.964;2022-08-01T21:04:38;13.60;;;7.95;;
56999;SDS011;42891;50.006;21.964;2022-08-01T21:09:04;13.15;;;7.47;;
56999;SDS011;42891;50.006;21.964;2022-08-01T21:13:06;12.13;;;7.68;;
56999;SDS011;42891;50.006;21.964;2022-08-01T21:17:13;11.02;;;7.68;;
56999;SDS011;42891;50.006;21.964;2022-08-01T21:21:31;11.68;;;7.45;;
56999;SDS011;42891;50.006;21.964;2022-08-01T21:25:34;10.30;;;6.97;;
56999;SDS011;42891;50.006;21.964;2022-08-01T21:29:35;12.95;;;7.00;;
56999;SDS011;42891;50.006;21.964;2022-08-01T21:33:37;12.27;;;7.32;;
56999;SDS011;42891;50.006;21.964;2022-08-01T21:37:41;14.82;;;7.60;;
56999;SDS011;42891;50.006;21.964;2022-08-01T21:41:41;12.73;;;7.00;;
56999;SDS011;42891;50.006;21.964;2022-08-01T21:45:43;13.55;;;7.50;;
56999;SDS011;42891;50.006;21.964;2022-08-01T21:49:46;10.80;;;7.13;;
56999;SDS011;42891;50.006;21.964;2022-08-01T22:02:16;11.93;;;6.40;;
56999;SDS011;42891;50.006;21.964;2022-08-01T22:06:44;10.32;;;6.88;;
56999;SDS011;42891;50.006;21.964;2022-08-01T22:10:51;14.63;;;7.18;;
56999;SDS011;42891;50.006;21.964;2022-08-01T22:14:55;8.27;;;6.80;;
56999;SDS011;42891;50.006;21.964;2022-08-01T22:19:00;11.80;;;7.25;;
56999;SDS011;42891;50.006;21.964;2022-08-01T22:23:01;14.07;;;8.10;;
56999;SDS011;42891;50.006;21.964;2022-08-01T22:27:02;12.93;;;7.32;;
56999;SDS011;42891;50.006;21.964;2022-08-01T22:31:05;12.75;;;7.40;;
56999;SDS011;42891;50.006;21.964;2022-08-01T22:35:07;11.45;;;6.75;;
56999;SDS011;42891;50.006;21.964;2022-08-01T22:39:09;10.40;;;6.70;;
56999;SDS011;42891;50.006;21.964;2022-08-01T22:43:28;10.05;;;6.97;;
56999;SDS011;42891;50.006;21.964;2022-08-01T22:55:52;12.95;;;6.55;;
56999;SDS011;42891;50.006;21.964;2022-08-01T22:59:56;12.45;;;7.15;;
56999;SDS011;42891;50.006;21.964;2022-08-01T23:04:00;10.63;;;6.88;;
56999;SDS011;42891;50.006;21.964;2022-08-01T23:08:02;10.57;;;6.90;;
56999;SDS011;42891;50.006;21.964;2022-08-01T23:12:03;14.00;;;7.68;;
56999;SDS011;42891;50.006;21.964;2022-08-01T23:16:04;12.40;;;7.38;;
56999;SDS011;42891;50.006;21.964;2022-08-01T23:20:05;11.82;;;7.53;;
56999;SDS011;42891;50.006;21.964;2022-08-01T23:24:06;11.32;;;8.25;;
56999;SDS011;42891;50.006;21.964;2022-08-01T23:28:08;11.10;;;7.55;;
56999;SDS011;42891;50.006;21.964;2022-08-01T23:32:08;17.20;;;7.88;;
56999;SDS011;42891;50.006;21.964;2022-08-01T23:36:08;13.90;;;8.03;;
56999;SDS011;42891;50.006;21.964;2022-08-01T23:40:09;9.48;;;6.75;;
56999;SDS011;42891;50.006;21.964;2022-08-01T23:44:10;14.40;;;8.00;;
56999;SDS011;42891;50.006;21.964;2022-08-01T23:48:10;12.63;;;7.67;;
56999;SDS011;42891;50.006;21.964;2022-08-01T23:52:10;13.03;;;8.27;;
56999;SDS011;42891;50.006;21.964;2022-08-01T23:56:11;12.15;;;7.00;;
